createdAt,value
2023-03-16T00:02:08.558Z,2.80
2023-03-16T00:04:38.387Z,2.70
2023-03-16T00:07:06.525Z,2.70
2023-03-16T00:09:33.265Z,2.70
2023-03-16T00:12:03.151Z,2.70
2023-03-16T00:14:30.487Z,2.70
2023-03-16T00:16:57.404Z,2.70
2023-03-16T00:19:24.466Z,2.60
2023-03-16T00:21:51.797Z,2.60
2023-03-16T00:24:19.441Z,2.60
2023-03-16T00:26:47.235Z,2.60
2023-03-16T00:29:14.251Z,2.60
2023-03-16T00:31:44.564Z,2.50
2023-03-16T00:34:12.035Z,2.50
2023-03-16T00:36:38.800Z,2.40
2023-03-16T00:39:07.044Z,2.50
2023-03-16T00:41:38.029Z,2.40
2023-03-16T00:44:05.904Z,2.40
2023-03-16T00:46:32.988Z,2.40
2023-03-16T00:48:59.829Z,2.40
2023-03-16T00:51:26.724Z,2.40
2023-03-16T00:53:53.809Z,2.30
2023-03-16T00:56:20.654Z,2.30
2023-03-16T00:58:48.020Z,2.30
2023-03-16T01:01:16.269Z,2.30
2023-03-16T01:03:43.711Z,2.30
2023-03-16T01:06:12.054Z,2.30
2023-03-16T01:08:40.029Z,2.30
2023-03-16T01:11:12.773Z,2.30
2023-03-16T01:13:39.906Z,2.30
2023-03-16T01:16:08.391Z,2.30
2023-03-16T01:18:35.300Z,2.30
2023-03-16T01:21:03.513Z,2.30
2023-03-16T01:23:33.691Z,2.20
2023-03-16T01:26:00.635Z,2.20
2023-03-16T01:28:29.008Z,2.20
2023-03-16T01:30:59.253Z,2.10
2023-03-16T01:33:26.799Z,2.10
2023-03-16T01:35:54.657Z,2.10
2023-03-16T01:38:22.027Z,2.10
2023-03-16T01:40:51.434Z,2.10
2023-03-16T01:43:18.789Z,2.00
2023-03-16T01:46:14.313Z,2.00
2023-03-16T01:48:54.600Z,2.10
2023-03-16T01:51:25.829Z,2.00
2023-03-16T01:54:00.945Z,2.00
2023-03-16T01:56:48.328Z,2.00
2023-03-16T01:59:16.754Z,2.00
2023-03-16T02:01:46.760Z,2.00
2023-03-16T02:04:24.198Z,1.90
2023-03-16T02:06:55.292Z,2.00
2023-03-16T02:09:24.245Z,2.00
2023-03-16T02:11:52.043Z,2.00
2023-03-16T02:14:18.885Z,2.00
2023-03-16T02:16:47.454Z,1.90
2023-03-16T02:19:19.022Z,2.00
2023-03-16T02:21:46.304Z,2.00
2023-03-16T02:24:13.261Z,2.00
2023-03-16T02:26:47.878Z,2.00
2023-03-16T02:29:40.060Z,2.00
2023-03-16T02:32:06.990Z,2.00
2023-03-16T02:34:35.233Z,2.00
2023-03-16T02:37:02.806Z,2.10
2023-03-16T02:39:30.381Z,2.10
2023-03-16T02:41:57.640Z,2.10
2023-03-16T02:44:35.258Z,2.20
2023-03-16T02:47:07.246Z,2.20
2023-03-16T02:49:36.596Z,2.20
2023-03-16T02:52:04.480Z,2.30
2023-03-16T02:54:32.050Z,2.40
2023-03-16T02:56:58.804Z,2.40
2023-03-16T02:59:27.025Z,2.40
2023-03-16T03:01:54.139Z,2.50
2023-03-16T03:04:23.374Z,2.50
2023-03-16T03:06:50.457Z,2.50
2023-03-16T03:09:18.415Z,2.60
2023-03-16T03:11:49.311Z,2.60
2023-03-16T03:14:17.047Z,2.60
2023-03-16T03:16:46.937Z,2.70
2023-03-16T03:19:15.784Z,2.70
2023-03-16T03:21:42.549Z,2.70
2023-03-16T03:24:09.815Z,2.80
2023-03-16T03:26:38.239Z,2.80
2023-03-16T03:29:08.965Z,2.80
2023-03-16T03:31:35.970Z,2.90
2023-03-16T03:34:06.657Z,2.80
2023-03-16T03:36:35.403Z,2.90
2023-03-16T03:39:05.123Z,2.90
2023-03-16T03:41:33.720Z,2.90
2023-03-16T03:44:04.017Z,3.00
2023-03-16T03:46:30.906Z,3.10
2023-03-16T03:49:03.573Z,3.10
2023-03-16T03:51:32.951Z,3.10
2023-03-16T03:54:03.721Z,3.10
2023-03-16T03:56:49.410Z,3.20
2023-03-16T03:59:17.142Z,3.20
2023-03-16T04:02:01.050Z,3.20
2023-03-16T04:04:38.095Z,3.20
2023-03-16T04:07:05.407Z,3.20
2023-03-16T04:09:34.010Z,3.30
2023-03-16T04:12:03.602Z,3.30
2023-03-16T04:14:31.165Z,3.30
2023-03-16T04:17:00.401Z,3.30
2023-03-16T04:19:28.568Z,3.30
2023-03-16T04:21:56.574Z,3.30
2023-03-16T04:24:24.097Z,3.30
2023-03-16T04:26:54.233Z,3.30
2023-03-16T04:29:21.179Z,3.30
2023-03-16T04:31:48.089Z,3.40
2023-03-16T04:34:17.024Z,3.40
2023-03-16T04:36:44.134Z,3.40
2023-03-16T04:39:11.085Z,3.40
2023-03-16T04:41:38.092Z,3.40
2023-03-16T04:44:15.635Z,3.40
2023-03-16T04:46:43.027Z,3.40
2023-03-16T04:49:11.427Z,3.40
2023-03-16T04:51:42.520Z,3.40
2023-03-16T04:54:13.679Z,3.40
2023-03-16T04:56:43.851Z,3.40
2023-03-16T04:59:30.133Z,3.40
2023-03-16T05:02:26.087Z,3.40
2023-03-16T05:04:55.162Z,3.40
2023-03-16T05:07:22.519Z,3.40
2023-03-16T05:09:53.475Z,3.40
2023-03-16T05:12:20.507Z,3.40
2023-03-16T05:14:51.912Z,3.40
2023-03-16T05:17:28.531Z,3.50
2023-03-16T05:19:55.674Z,3.50
2023-03-16T05:22:22.539Z,3.50
2023-03-16T05:25:08.146Z,3.50
2023-03-16T05:27:35.188Z,3.50
2023-03-16T05:30:03.883Z,3.50
2023-03-16T05:32:32.557Z,3.50
2023-03-16T05:34:59.393Z,3.50
2023-03-16T05:37:26.437Z,3.50
2023-03-16T05:39:53.314Z,3.50
2023-03-16T05:42:20.424Z,3.50
2023-03-16T05:44:53.793Z,3.60
2023-03-16T05:47:28.366Z,3.50
2023-03-16T05:49:58.425Z,3.50
2023-03-16T05:52:39.116Z,3.60
2023-03-16T05:55:14.552Z,3.60
2023-03-16T05:57:41.758Z,3.60
2023-03-16T06:00:15.721Z,3.60
2023-03-16T06:02:50.023Z,3.70
2023-03-16T06:05:17.695Z,3.70
2023-03-16T06:07:50.165Z,3.70
2023-03-16T06:10:18.562Z,3.70
2023-03-16T06:12:45.473Z,3.70
2023-03-16T06:15:20.191Z,3.80
2023-03-16T06:17:48.848Z,3.80
2023-03-16T06:20:17.777Z,3.80
2023-03-16T06:22:46.531Z,3.80
2023-03-16T06:25:13.841Z,3.80
2023-03-16T06:27:42.948Z,3.90
2023-03-16T06:30:13.484Z,3.90
2023-03-16T06:32:42.591Z,4.00
2023-03-16T06:35:10.208Z,4.00
2023-03-16T06:37:40.512Z,4.00
2023-03-16T06:40:36.774Z,4.10
2023-03-16T06:43:03.888Z,4.10
2023-03-16T06:45:31.943Z,4.20
2023-03-16T06:47:59.612Z,4.20
2023-03-16T06:50:27.098Z,4.30
2023-03-16T06:52:54.470Z,4.30
2023-03-16T06:55:21.383Z,4.40
2023-03-16T06:57:50.391Z,4.40
2023-03-16T07:00:18.990Z,4.50
2023-03-16T07:02:45.783Z,4.50
2023-03-16T07:05:14.795Z,4.60
2023-03-16T07:07:43.232Z,4.60
2023-03-16T07:10:14.147Z,4.70
2023-03-16T07:12:42.267Z,4.80
2023-03-16T07:15:09.943Z,4.80
2023-03-16T07:17:37.228Z,4.90
2023-03-16T07:20:10.010Z,4.90
2023-03-16T07:22:37.928Z,5.00
2023-03-16T07:25:07.186Z,5.10
2023-03-16T07:27:34.327Z,5.10
2023-03-16T07:30:08.368Z,5.20
2023-03-16T07:32:38.558Z,5.30
2023-03-16T07:35:06.170Z,5.30
2023-03-16T07:37:35.026Z,5.40
2023-03-16T07:40:05.117Z,5.50
2023-03-16T07:42:31.919Z,5.60
2023-03-16T07:45:09.471Z,5.60
2023-03-16T07:47:36.417Z,5.70
2023-03-16T07:50:11.502Z,5.70
2023-03-16T07:52:41.735Z,5.80
2023-03-16T07:55:10.362Z,5.80
2023-03-16T07:57:39.180Z,5.90
2023-03-16T08:00:07.806Z,6.00
2023-03-16T08:02:39.989Z,6.00
2023-03-16T08:05:12.851Z,6.10
2023-03-16T08:07:43.858Z,6.20
2023-03-16T08:10:15.064Z,6.20
2023-03-16T08:12:51.796Z,6.30
2023-03-16T08:15:19.334Z,6.40
2023-03-16T08:17:47.806Z,6.40
2023-03-16T08:20:21.069Z,6.40
2023-03-16T08:22:49.715Z,6.50
2023-03-16T08:25:20.026Z,6.50
2023-03-16T08:27:58.322Z,6.50
2023-03-16T08:30:26.814Z,6.50
2023-03-16T08:33:10.623Z,6.60
2023-03-16T08:35:41.094Z,6.70
2023-03-16T08:38:09.050Z,6.70
2023-03-16T08:40:35.955Z,6.80
2023-03-16T08:43:04.196Z,6.90
2023-03-16T08:45:33.264Z,7.00
2023-03-16T08:48:00.623Z,7.00
2023-03-16T08:50:28.547Z,7.00
2023-03-16T08:52:55.481Z,7.10
2023-03-16T08:55:22.318Z,7.20
2023-03-16T08:57:49.599Z,7.20
2023-03-16T09:00:17.806Z,7.30
2023-03-16T09:02:44.766Z,7.40
2023-03-16T09:05:12.765Z,7.50
2023-03-16T09:07:39.603Z,7.60
2023-03-16T09:10:09.636Z,7.60
2023-03-16T09:12:36.726Z,7.70
2023-03-16T09:15:04.138Z,7.70
2023-03-16T09:17:30.814Z,7.80
2023-03-16T09:20:08.119Z,7.80
2023-03-16T09:22:42.245Z,7.90
2023-03-16T09:25:11.251Z,7.90
2023-03-16T09:27:37.995Z,7.90
2023-03-16T09:30:05.918Z,8.00
2023-03-16T09:32:33.516Z,8.00
2023-03-16T09:35:00.395Z,8.10
2023-03-16T09:37:27.892Z,8.10
2023-03-16T09:39:58.013Z,8.10
2023-03-16T09:42:30.677Z,8.10
2023-03-16T09:45:00.374Z,8.10
2023-03-16T09:47:31.145Z,8.20
2023-03-16T09:50:00.402Z,8.20
2023-03-16T09:52:45.948Z,8.20
2023-03-16T09:55:25.201Z,8.20
2023-03-16T09:57:52.363Z,8.20
2023-03-16T10:00:24.437Z,8.20
2023-03-16T10:03:00.398Z,8.20
2023-03-16T10:05:27.486Z,8.30
2023-03-16T10:08:03.517Z,8.30
2023-03-16T10:10:39.888Z,8.40
2023-03-16T10:13:12.779Z,8.40
2023-03-16T10:15:40.342Z,8.50
2023-03-16T10:18:13.700Z,8.50
2023-03-16T10:20:41.863Z,8.50
2023-03-16T10:23:14.913Z,8.60
2023-03-16T10:25:44.229Z,8.50
2023-03-16T10:28:13.678Z,8.50
2023-03-16T10:30:42.847Z,8.60
2023-03-16T10:33:26.771Z,8.60
2023-03-16T10:35:54.080Z,8.60
2023-03-16T10:38:41.386Z,8.70
2023-03-16T10:41:20.451Z,8.80
2023-03-16T10:43:51.147Z,8.80
2023-03-16T10:46:18.793Z,8.90
2023-03-16T10:48:53.415Z,9.00
2023-03-16T10:51:25.147Z,9.00
2023-03-16T10:53:52.137Z,9.10
2023-03-16T10:56:25.365Z,9.10
2023-03-16T10:58:52.365Z,9.20
2023-03-16T11:01:21.731Z,9.20
2023-03-16T11:03:51.301Z,9.20
2023-03-16T11:06:24.627Z,9.20
2023-03-16T11:08:53.045Z,9.20
2023-03-16T11:11:29.332Z,9.20
2023-03-16T11:14:01.111Z,9.30
2023-03-16T11:16:39.422Z,9.30
2023-03-16T11:19:14.827Z,9.40
2023-03-16T11:21:51.537Z,9.50
2023-03-16T11:24:27.271Z,9.60
2023-03-16T11:26:57.043Z,9.70
2023-03-16T11:29:36.036Z,9.70
2023-03-16T11:32:11.615Z,9.80
2023-03-16T11:34:39.178Z,9.90
2023-03-16T11:37:13.155Z,10.00
2023-03-16T11:39:47.330Z,10.10
2023-03-16T11:42:33.423Z,10.10
2023-03-16T11:45:15.252Z,10.10
2023-03-16T11:48:01.060Z,10.20
2023-03-16T11:50:35.639Z,10.10
2023-03-16T11:53:22.558Z,10.00
2023-03-16T11:56:08.059Z,9.90
2023-03-16T11:58:40.935Z,9.90
2023-03-16T12:01:19.835Z,9.80
2023-03-16T12:03:59.024Z,9.80
2023-03-16T12:06:47.195Z,9.80
2023-03-16T12:09:28.747Z,9.80
2023-03-16T12:12:04.817Z,9.90
2023-03-16T12:14:32.136Z,9.90
2023-03-16T12:17:17.503Z,9.90
2023-03-16T12:19:59.624Z,9.90
2023-03-16T12:22:29.930Z,9.90
2023-03-16T12:24:56.615Z,9.90
2023-03-16T12:27:30.111Z,10.00
2023-03-16T12:30:03.678Z,10.00
2023-03-16T12:32:42.798Z,10.10
2023-03-16T12:35:29.481Z,10.20
2023-03-16T12:38:01.201Z,10.30
2023-03-16T12:40:33.728Z,10.40
2023-03-16T12:43:10.671Z,10.50
2023-03-16T12:45:47.992Z,10.60
2023-03-16T12:48:32.413Z,10.70
2023-03-16T12:51:00.821Z,10.70
2023-03-16T12:53:33.540Z,10.80
2023-03-16T12:56:05.148Z,10.80
2023-03-16T12:58:32.996Z,10.90
2023-03-16T13:01:00.193Z,11.00
2023-03-16T13:03:28.434Z,11.10
2023-03-16T13:06:00.694Z,11.10
2023-03-16T13:08:28.842Z,11.10
2023-03-16T13:11:11.015Z,11.10
2023-03-16T13:14:06.247Z,11.10
2023-03-16T13:16:36.349Z,11.00
2023-03-16T13:19:22.564Z,11.00
2023-03-16T13:22:00.175Z,11.00
2023-03-16T13:24:35.240Z,11.00
2023-03-16T13:27:11.346Z,11.00
2023-03-16T13:29:39.144Z,11.00
2023-03-16T13:32:16.649Z,11.00
2023-03-16T13:34:48.492Z,11.00
2023-03-16T13:37:16.921Z,11.00
2023-03-16T13:39:51.593Z,11.00
2023-03-16T13:42:19.289Z,11.00
2023-03-16T13:44:49.553Z,11.00
2023-03-16T13:47:19.905Z,11.10
2023-03-16T13:49:51.875Z,11.10
2023-03-16T13:52:25.495Z,11.10
2023-03-16T13:54:53.231Z,11.10
2023-03-16T13:57:22.126Z,11.20
2023-03-16T13:59:49.541Z,11.20
2023-03-16T14:02:22.289Z,11.30
2023-03-16T14:04:49.212Z,11.30
2023-03-16T14:07:17.557Z,11.40
2023-03-16T14:09:46.730Z,11.50
2023-03-16T14:12:17.576Z,11.60
2023-03-16T14:14:50.253Z,11.60
2023-03-16T14:17:17.888Z,11.60
2023-03-16T14:19:49.869Z,11.60
2023-03-16T14:22:18.510Z,11.60
2023-03-16T14:24:46.848Z,11.50
2023-03-16T14:27:19.717Z,11.50
2023-03-16T14:29:50.834Z,11.50
2023-03-16T14:32:27.935Z,11.50
2023-03-16T14:35:04.211Z,11.40
2023-03-16T14:37:35.612Z,11.40
2023-03-16T14:40:05.981Z,11.30
2023-03-16T14:42:32.987Z,11.20
2023-03-16T14:45:00.997Z,11.10
2023-03-16T14:47:29.244Z,11.10
2023-03-16T14:49:57.367Z,11.20
2023-03-16T14:52:27.146Z,11.20
2023-03-16T14:54:55.073Z,11.30
2023-03-16T14:57:22.189Z,11.40
2023-03-16T14:59:48.928Z,11.50
2023-03-16T15:02:25.283Z,11.60
2023-03-16T15:04:52.575Z,11.60
2023-03-16T15:07:22.354Z,11.60
2023-03-16T15:09:50.554Z,11.70
2023-03-16T15:12:19.476Z,11.70
2023-03-16T15:15:04.986Z,11.70
2023-03-16T15:17:32.398Z,11.70
2023-03-16T15:19:59.184Z,11.60
2023-03-16T15:22:30.679Z,11.60
2023-03-16T15:24:58.756Z,11.50
2023-03-16T15:27:28.842Z,11.50
2023-03-16T15:29:56.587Z,11.50
2023-03-16T15:32:23.559Z,11.50
2023-03-16T15:34:50.419Z,11.50
2023-03-16T15:37:18.139Z,11.50
2023-03-16T15:39:46.777Z,11.50
2023-03-16T15:42:17.596Z,11.50
2023-03-16T15:44:44.798Z,11.50
2023-03-16T15:47:14.329Z,11.50
2023-03-16T15:49:47.732Z,11.50
2023-03-16T15:52:29.991Z,11.60
2023-03-16T15:54:57.570Z,11.50
2023-03-16T15:57:24.628Z,11.50
2023-03-16T15:59:52.335Z,11.50
2023-03-16T16:02:28.024Z,11.50
2023-03-16T16:04:55.173Z,11.50
2023-03-16T16:07:22.267Z,11.50
2023-03-16T16:09:49.387Z,11.40
2023-03-16T16:12:17.359Z,11.40
2023-03-16T16:14:44.365Z,11.40
2023-03-16T16:17:19.861Z,11.40
2023-03-16T16:19:47.956Z,11.40
2023-03-16T16:22:14.586Z,11.30
2023-03-16T16:24:41.352Z,11.30
2023-03-16T16:27:11.004Z,11.30
2023-03-16T16:29:38.585Z,11.20
2023-03-16T16:32:25.693Z,11.20
2023-03-16T16:35:03.889Z,11.10
2023-03-16T16:37:31.356Z,11.10
2023-03-16T16:39:58.108Z,11.00
2023-03-16T16:42:24.760Z,11.00
2023-03-16T16:44:51.995Z,11.00
2023-03-16T16:47:21.277Z,10.90
2023-03-16T16:49:49.403Z,10.90
2023-03-16T16:52:17.161Z,10.90
2023-03-16T16:54:43.956Z,10.90
2023-03-16T16:57:20.289Z,10.90
2023-03-16T16:59:48.310Z,10.90
2023-03-16T17:02:24.340Z,10.80
2023-03-16T17:04:51.658Z,10.80
2023-03-16T17:07:18.571Z,10.80
2023-03-16T17:09:45.372Z,10.70
2023-03-16T17:12:17.806Z,10.70
2023-03-16T17:14:44.512Z,10.60
2023-03-16T17:17:13.512Z,10.50
2023-03-16T17:19:40.435Z,10.50
2023-03-16T17:22:17.010Z,10.40
2023-03-16T17:24:43.861Z,10.30
2023-03-16T17:27:14.236Z,10.30
2023-03-16T17:29:42.746Z,10.20
2023-03-16T17:32:27.686Z,10.10
2023-03-16T17:34:54.641Z,10.00
2023-03-16T17:37:22.281Z,10.00
2023-03-16T17:39:49.228Z,10.00
2023-03-16T17:42:19.724Z,9.90
2023-03-16T17:44:47.953Z,9.80
2023-03-16T17:47:38.359Z,9.80
2023-03-16T17:50:15.915Z,9.80
2023-03-16T17:52:42.785Z,9.70
2023-03-16T17:55:09.687Z,9.70
2023-03-16T17:57:36.901Z,9.70
2023-03-16T18:00:07.255Z,9.70
2023-03-16T18:02:37.629Z,9.60
2023-03-16T18:05:05.852Z,9.60
2023-03-16T18:07:32.571Z,9.60
2023-03-16T18:09:59.251Z,9.60
2023-03-16T18:12:26.293Z,9.50
2023-03-16T18:14:58.532Z,9.50
2023-03-16T18:17:29.594Z,9.50
2023-03-16T18:19:56.675Z,9.50
2023-03-16T18:22:24.523Z,9.50
2023-03-16T18:24:52.987Z,9.40
2023-03-16T18:27:19.851Z,9.40
2023-03-16T18:29:47.044Z,9.30
2023-03-16T18:32:29.897Z,9.30
2023-03-16T18:34:57.082Z,9.30
2023-03-16T18:37:24.868Z,9.20
2023-03-16T18:39:52.870Z,9.10
2023-03-16T18:42:24.243Z,9.10
2023-03-16T18:44:51.649Z,9.10
2023-03-16T18:47:20.053Z,9.10
2023-03-16T18:49:49.434Z,9.10
2023-03-16T18:52:20.791Z,9.00
2023-03-16T18:54:48.209Z,9.10
2023-03-16T18:57:25.522Z,9.00
2023-03-16T18:59:52.628Z,9.00
2023-03-16T19:02:31.557Z,9.00
2023-03-16T19:04:59.645Z,8.90
2023-03-16T19:07:34.408Z,9.00
2023-03-16T19:10:03.206Z,8.90
2023-03-16T19:12:29.968Z,8.90
2023-03-16T19:14:56.682Z,8.90
2023-03-16T19:17:23.563Z,8.80
2023-03-16T19:19:50.608Z,8.80
2023-03-16T19:22:18.590Z,8.80
2023-03-16T19:24:53.873Z,8.80
2023-03-16T19:27:25.801Z,8.80
2023-03-16T19:29:53.794Z,8.70
2023-03-16T19:32:21.625Z,8.80
2023-03-16T19:34:49.255Z,8.70
2023-03-16T19:37:16.768Z,8.70
2023-03-16T19:39:43.813Z,8.70
2023-03-16T19:42:20.907Z,8.70
2023-03-16T19:44:49.206Z,8.70
2023-03-16T19:47:26.142Z,8.70
2023-03-16T19:49:53.075Z,8.70
2023-03-16T19:52:19.790Z,8.70
2023-03-16T19:54:46.837Z,8.70
2023-03-16T19:57:17.926Z,8.70
2023-03-16T19:59:49.549Z,8.70
2023-03-16T20:02:28.894Z,8.70
2023-03-16T20:04:55.839Z,8.70
2023-03-16T20:07:22.692Z,8.70
2023-03-16T20:09:49.714Z,8.70
2023-03-16T20:12:28.721Z,8.70
2023-03-16T20:14:56.393Z,8.70
2023-03-16T20:17:24.388Z,8.60
2023-03-16T20:19:52.145Z,8.60
2023-03-16T20:22:19.898Z,8.60
2023-03-16T20:24:48.398Z,8.60
2023-03-16T20:27:16.270Z,8.60
2023-03-16T20:29:42.996Z,8.60
2023-03-16T20:32:20.514Z,8.60
2023-03-16T20:34:47.599Z,8.60
2023-03-16T20:37:23.774Z,8.60
2023-03-16T20:39:54.502Z,8.60
2023-03-16T20:42:24.116Z,8.60
2023-03-16T20:44:50.914Z,8.60
2023-03-16T20:47:18.689Z,8.70
2023-03-16T20:49:45.401Z,8.70
2023-03-16T20:52:16.552Z,8.70
2023-03-16T20:54:43.418Z,8.70
2023-03-16T20:57:39.037Z,8.70
2023-03-16T21:00:13.343Z,8.70
2023-03-16T21:02:40.156Z,8.60
2023-03-16T21:05:07.749Z,8.70
2023-03-16T21:07:34.648Z,8.60
2023-03-16T21:10:01.569Z,8.60
2023-03-16T21:12:29.958Z,8.60
2023-03-16T21:14:56.922Z,8.60
2023-03-16T21:17:34.390Z,8.60
2023-03-16T21:20:01.266Z,8.50
2023-03-16T21:22:29.363Z,8.50
2023-03-16T21:24:56.601Z,8.50
2023-03-16T21:27:25.649Z,8.50
2023-03-16T21:29:56.245Z,8.50
2023-03-16T21:32:24.891Z,8.50
2023-03-16T21:34:51.905Z,8.50
2023-03-16T21:37:20.015Z,8.40
2023-03-16T21:39:47.893Z,8.40
2023-03-16T21:42:14.642Z,8.40
2023-03-16T21:44:41.276Z,8.40
2023-03-16T21:47:23.060Z,8.40
2023-03-16T21:49:50.333Z,8.40
2023-03-16T21:52:28.019Z,8.40
2023-03-16T21:54:55.605Z,8.40
2023-03-16T21:57:22.861Z,8.40
2023-03-16T21:59:50.399Z,8.40
2023-03-16T22:02:19.970Z,8.30
2023-03-16T22:04:47.457Z,8.30
2023-03-16T22:07:14.554Z,8.30
2023-03-16T22:09:41.986Z,8.30
2023-03-16T22:12:10.607Z,8.30
2023-03-16T22:14:37.321Z,8.30
2023-03-16T22:17:04.800Z,8.30
2023-03-16T22:19:32.388Z,8.30
2023-03-16T22:21:59.232Z,8.20
2023-03-16T22:24:27.939Z,8.20
2023-03-16T22:26:54.968Z,8.20
2023-03-16T22:29:21.718Z,8.10
2023-03-16T22:31:48.840Z,8.10
2023-03-16T22:34:27.280Z,8.10
2023-03-16T22:36:54.303Z,8.10
2023-03-16T22:39:21.207Z,8.10
2023-03-16T22:41:48.026Z,8.10
2023-03-16T22:44:20.213Z,8.00
2023-03-16T22:46:49.047Z,8.00
2023-03-16T22:49:27.037Z,8.00
2023-03-16T22:51:55.481Z,8.00
2023-03-16T22:54:24.122Z,8.00
2023-03-16T22:56:51.497Z,8.00
2023-03-16T22:59:20.167Z,8.00
2023-03-16T23:01:48.707Z,8.00
2023-03-16T23:04:24.391Z,8.00
2023-03-16T23:06:52.578Z,8.00
2023-03-16T23:09:20.491Z,8.00
2023-03-16T23:11:48.836Z,8.10
2023-03-16T23:14:16.855Z,8.00
2023-03-16T23:16:44.585Z,8.10
2023-03-16T23:19:24.680Z,8.00
2023-03-16T23:21:53.061Z,8.10
2023-03-16T23:24:19.924Z,8.10
2023-03-16T23:26:46.672Z,8.10
2023-03-16T23:29:13.640Z,8.20
2023-03-16T23:31:41.127Z,8.20
2023-03-16T23:34:12.148Z,8.20
2023-03-16T23:36:39.243Z,8.30
2023-03-16T23:39:06.205Z,8.30
2023-03-16T23:41:33.711Z,8.40
2023-03-16T23:44:01.398Z,8.40
2023-03-16T23:46:28.905Z,8.40
2023-03-16T23:48:58.040Z,8.40
2023-03-16T23:51:29.381Z,8.40
2023-03-16T23:53:56.206Z,8.40
2023-03-16T23:56:23.288Z,8.50
2023-03-16T23:58:50.949Z,8.50
